DTTJ/DJE METAR and TAF weather

Enter ICAO airport designator
Station Type Date Time Source
DTTJ METAR 2022/06/28 15:30 UTC NOAA

DTTJ 281530Z 09018KT 6000 NSC 41/11 Q1010 NOSIG


Station Type Date Time Source
DTTJ Decoded METAR 2022/06/28 15:30 UTC NOAA

Djerba Mellita, Tunisia (DTTJ) 33-52N 010-46E 4M
Jun 28, 2022 - 11:30 AM EDT / 2022.06.28 1530 UTC
Wind: from the E (090 degrees) at 21 MPH (18 KT):0
Visibility: 3 mile(s):0
Temperature: 105 F (41 C)
Heat index: 102.0 F (38.9 C):1
Dew Point: 51 F (11 C)
Relative Humidity: 16%
Pressure (altimeter): 29.83 in. Hg (1010 hPa)
ob: DTTJ 281530Z 09018KT 6000 NSC 41/11 Q1010 NOSIG
cycle: 15

Station Type Date Time Source
DTTJ TAF 2022/06/28 12:12 UTC NOAA

TAF DTTJ 281100Z 2812/2912 15010KT 6000 NSC
BECMG 2815/2824 02020KT

Example: see airport list